الصفحة الرئيسية
METAR-TAF:

METAR-TAF

مطار :

مطار ياوندي

ياوندي, الكاميرون

دائرة عرض: 03-50N, خط طول: 011-31E, ارتفاع: 751 متر

METAR: مفقودة

زمن: 09:38 (08:38 UTC)

توقعات

تاريخ ووقت الإصدار 3ساعات و 38 دقيقة قبل الساعة 05:00UTC
التوقعات صالحة من19 الساعة 06 UTC إلى 20 الساعة 06 UTC
ريح 5 عقدة من الغرب
الرؤية: 0800 متر
غيوم مفككة على ارتفاع 500 قدم
غيوم قليلة على ارتفاع 1600 قدم, مزنة ركامية.
ضباب
أصبح
من 19 الساعة 07 UTC إلى 19 الساعة 09 UTC
الرؤية: 7000 متر
غيوم مفككة على ارتفاع 1600 قدم
مؤقت
من 19 الساعة 15 UTC إلى 19 الساعة 21 UTC
غيوم مفككة على ارتفاع 1300 قدم
غيوم قليلة على ارتفاع 2000 قدم, مزنة ركامية.
عاصفة رعدية
أصبح
من 19 الساعة 21 UTC إلى 19 الساعة 23 UTC
غيوم مفككة على ارتفاع 600 قدم

TAF: FKYS 190500Z 1906/2006 26005KT 0800 FG BKN005 FEW016CB BECMG 1907/1909 7000 NSW BKN016 TEMPO 1915/1921 TS BKN013 FEW020CB BECMG 1921/1923 BKN006

أرصاد الطقس والتوقعات من أكثر من 4000 مطار (تقارير الطقس للمطار METAR والتنبؤ بالطقس بالمطارTAF).

المحطات المتاحة هي النقط الصفراء والحمراء على الخريطة.

حرك المؤشر فوق النقطة لمعرفة اسم المحطة.

ثم انقر لمعرفة أرصاد وتوقعات الطقس.

لتغيير الخارطة: اضغط على الأزرار الخضراء مع رمز الصليب الأسود للتكبير. على الزر الأخضر مع شرطة للتصغير، أو على الأسهم الخضراء للخرائط المجاورة.


METAR-TAF: